Altoona, Florida
Current Conditions -  °F | °C
As of 12:53 AM on Thursday 29 Jan 2015 (Local Time) from KLEE Reporting Station
Clear Clear  
Wind Chill:   Ceiling: Unl
Heat Index:   Visibility: 10mi
Dew Point:   Wind: 5mph
Humidity: 82%   Direction: 30°NNE
Pressure: 30.3"   Gusts: NA
Location:  28.97°N, 81.65°W
Report Text: KLEE 290553Z AUTO 03004KT 10SM CLR 05/02 A3030 RMK AO2 SLP261 T00500022 10106 20050 50002
Loading
Personal Weather Stations






























Interactive Weather Map New forecast layout! Learn more

10-Day Weather Forecast

Advertisements
Track Severe Weather on mobile